Aktuální počasí v Tlučné 

Teplota -2.2 °C
Minimální teplota -2.6 °C Maximální teplota 0.1 °C
Teplota rosného bodu -5.2 °C Pocitová teplota -2.2 °C
Tlak 1006.0 hPa
Směr a rychlost větru NW 0.5 m/s
» 1.1 m/s
vlhkost 80.1 %
Teplota 0.0  mm/h
SlunceUV1.97 dnes zítra
↑ 06:52 ↑ 06:50
↓ 17:47 ↓ 17:48
   
Měsíc dnes zítra
↑ 07:23 ↑ 07:52
↓ 18:54 ↓ 20:09
   
  LKLN Metar
  LKLN Metar
2017/02/27 04:00
LKLN 270400Z AUTO 00000KT CAVOK M02/M03 Q1013
Rychlost a směr větru Bezvětří
0 km/h
--
10 km
32805.1 ft
--
Teplota -2 °C
Rosný bod -3°C
 
Tlak 1013 hPa
759.8 mmHg
 
  YR.no meteogram
  YR.no meteogram
Meteogram YR.no
  IN-Pocasi.cz
  IN-Pocasi.cz
In-Pocasi logo




  PocasiIdnes     CHMI     MeteoPress     Radar     Radar2  


  Valid XHTML 1.0 Transitional  


Provozni a servisni denik

Popis

ČKD / FAQ